sensor_id;sensor_type;location;lat;lon;timestamp;temperature;humidity
29539;DHT22;16482;51.046;4.498;2023-10-09T00:02:11;24.30;50.60
29539;DHT22;16482;51.046;4.498;2023-10-09T00:04:41;24.30;50.60
29539;DHT22;16482;51.046;4.498;2023-10-09T00:07:08;24.30;51.20
29539;DHT22;16482;51.046;4.498;2023-10-09T00:09:35;24.30;50.60
29539;DHT22;16482;51.046;4.498;2023-10-09T00:12:17;24.30;50.60
29539;DHT22;16482;51.046;4.498;2023-10-09T00:14:50;24.20;50.40
29539;DHT22;16482;51.046;4.498;2023-10-09T00:17:20;24.30;50.50
29539;DHT22;16482;51.046;4.498;2023-10-09T00:19:49;24.30;50.50
29539;DHT22;16482;51.046;4.498;2023-10-09T00:22:17;24.30;50.50
29539;DHT22;16482;51.046;4.498;2023-10-09T00:24:57;24.30;50.40
29539;DHT22;16482;51.046;4.498;2023-10-09T00:27:55;24.30;50.40
29539;DHT22;16482;51.046;4.498;2023-10-09T00:30:25;24.20;50.40
29539;DHT22;16482;51.046;4.498;2023-10-09T00:32:55;24.30;50.60
29539;DHT22;16482;51.046;4.498;2023-10-09T00:35:24;24.30;50.60
29539;DHT22;16482;51.046;4.498;2023-10-09T00:38:05;24.30;50.50
29539;DHT22;16482;51.046;4.498;2023-10-09T00:40:50;24.30;50.60
29539;DHT22;16482;51.046;4.498;2023-10-09T00:43:28;24.20;50.60
29539;DHT22;16482;51.046;4.498;2023-10-09T00:45:56;24.30;50.70
29539;DHT22;16482;51.046;4.498;2023-10-09T00:48:28;24.30;50.60
29539;DHT22;16482;51.046;4.498;2023-10-09T00:51:13;24.30;50.50
29539;DHT22;16482;51.046;4.498;2023-10-09T00:53:55;24.20;50.50
29539;DHT22;16482;51.046;4.498;2023-10-09T00:56:24;24.30;50.60
29539;DHT22;16482;51.046;4.498;2023-10-09T00:59:04;24.30;50.60
29539;DHT22;16482;51.046;4.498;2023-10-09T01:01:40;24.20;50.60
29539;DHT22;16482;51.046;4.498;2023-10-09T01:04:11;24.20;50.50
29539;DHT22;16482;51.046;4.498;2023-10-09T01:07:05;24.30;50.60
29539;DHT22;16482;51.046;4.498;2023-10-09T01:09:40;24.30;50.60
29539;DHT22;16482;51.046;4.498;2023-10-09T01:12:10;24.20;50.60
29539;DHT22;16482;51.046;4.498;2023-10-09T01:14:46;24.30;51.10
29539;DHT22;16482;51.046;4.498;2023-10-09T01:17:21;24.30;50.60
29539;DHT22;16482;51.046;4.498;2023-10-09T01:20:02;24.20;50.50
29539;DHT22;16482;51.046;4.498;2023-10-09T01:22:30;24.30;50.50
29539;DHT22;16482;51.046;4.498;2023-10-09T01:24:56;24.20;50.60
29539;DHT22;16482;51.046;4.498;2023-10-09T01:27:22;24.20;50.60
29539;DHT22;16482;51.046;4.498;2023-10-09T01:29:51;24.30;50.60
29539;DHT22;16482;51.046;4.498;2023-10-09T01:32:17;24.30;50.60
29539;DHT22;16482;51.046;4.498;2023-10-09T01:34:45;24.30;50.50
29539;DHT22;16482;51.046;4.498;2023-10-09T01:37:19;24.30;50.50
29539;DHT22;16482;51.046;4.498;2023-10-09T01:39:49;24.30;50.50
29539;DHT22;16482;51.046;4.498;2023-10-09T01:42:19;24.30;50.50
29539;DHT22;16482;51.046;4.498;2023-10-09T01:45:00;24.20;50.40
29539;DHT22;16482;51.046;4.498;2023-10-09T01:47:52;24.20;50.40
29539;DHT22;16482;51.046;4.498;2023-10-09T01:50:20;24.20;50.40
29539;DHT22;16482;51.046;4.498;2023-10-09T01:53:12;24.20;50.40
29539;DHT22;16482;51.046;4.498;2023-10-09T01:55:43;24.30;50.40
29539;DHT22;16482;51.046;4.498;2023-10-09T01:58:12;24.30;50.50
29539;DHT22;16482;51.046;4.498;2023-10-09T02:00:47;24.20;50.30
29539;DHT22;16482;51.046;4.498;2023-10-09T02:03:41;24.20;50.30
29539;DHT22;16482;51.046;4.498;2023-10-09T02:06:15;24.20;50.40
29539;DHT22;16482;51.046;4.498;2023-10-09T02:09:05;24.30;50.40
29539;DHT22;16482;51.046;4.498;2023-10-09T02:11:32;24.20;50.30
29539;DHT22;16482;51.046;4.498;2023-10-09T02:14:11;24.20;50.30
29539;DHT22;16482;51.046;4.498;2023-10-09T02:16:48;24.20;50.30
29539;DHT22;16482;51.046;4.498;2023-10-09T02:19:33;24.20;50.30
29539;DHT22;16482;51.046;4.498;2023-10-09T02:22:02;24.30;50.30
29539;DHT22;16482;51.046;4.498;2023-10-09T02:24:41;24.20;50.30
29539;DHT22;16482;51.046;4.498;2023-10-09T02:27:18;24.20;50.20
29539;DHT22;16482;51.046;4.498;2023-10-09T02:30:06;24.20;50.30
29539;DHT22;16482;51.046;4.498;2023-10-09T02:32:42;24.30;50.20
29539;DHT22;16482;51.046;4.498;2023-10-09T02:35:20;24.20;50.20
29539;DHT22;16482;51.046;4.498;2023-10-09T02:38:08;24.20;50.20
29539;DHT22;16482;51.046;4.498;2023-10-09T02:40:37;24.20;50.20
29539;DHT22;16482;51.046;4.498;2023-10-09T02:43:13;24.20;50.10
29539;DHT22;16482;51.046;4.498;2023-10-09T02:45:43;24.20;50.20
29539;DHT22;16482;51.046;4.498;2023-10-09T02:48:18;24.20;50.10
29539;DHT22;16482;51.046;4.498;2023-10-09T02:50:52;24.20;50.10
29539;DHT22;16482;51.046;4.498;2023-10-09T02:53:17;24.20;50.00
29539;DHT22;16482;51.046;4.498;2023-10-09T02:55:54;24.30;50.00
29539;DHT22;16482;51.046;4.498;2023-10-09T02:58:40;24.20;50.00
29539;DHT22;16482;51.046;4.498;2023-10-09T03:01:12;24.20;50.10
29539;DHT22;16482;51.046;4.498;2023-10-09T03:03:42;24.20;50.00
29539;DHT22;16482;51.046;4.498;2023-10-09T03:06:15;24.30;50.10
29539;DHT22;16482;51.046;4.498;2023-10-09T03:08:50;24.20;50.00
29539;DHT22;16482;51.046;4.498;2023-10-09T03:11:16;24.20;50.10
29539;DHT22;16482;51.046;4.498;2023-10-09T03:13:45;24.20;50.00
29539;DHT22;16482;51.046;4.498;2023-10-09T03:16:18;24.20;50.00
29539;DHT22;16482;51.046;4.498;2023-10-09T03:19:03;24.20;50.00
29539;DHT22;16482;51.046;4.498;2023-10-09T03:21:32;24.20;49.90
29539;DHT22;16482;51.046;4.498;2023-10-09T03:23:58;24.20;50.00
29539;DHT22;16482;51.046;4.498;2023-10-09T03:26:24;24.20;49.90
29539;DHT22;16482;51.046;4.498;2023-10-09T03:28:52;24.30;50.00
29539;DHT22;16482;51.046;4.498;2023-10-09T03:31:20;24.20;49.80
29539;DHT22;16482;51.046;4.498;2023-10-09T03:33:47;24.20;50.00
29539;DHT22;16482;51.046;4.498;2023-10-09T03:36:13;24.20;50.00
29539;DHT22;16482;51.046;4.498;2023-10-09T03:38:42;24.20;49.90
29539;DHT22;16482;51.046;4.498;2023-10-09T03:41:08;24.20;49.90
29539;DHT22;16482;51.046;4.498;2023-10-09T03:43:38;24.20;49.90
29539;DHT22;16482;51.046;4.498;2023-10-09T03:46:10;24.20;49.90
29539;DHT22;16482;51.046;4.498;2023-10-09T03:48:59;24.20;49.90
29539;DHT22;16482;51.046;4.498;2023-10-09T03:51:29;24.20;49.80
29539;DHT22;16482;51.046;4.498;2023-10-09T03:53:55;24.20;49.80
29539;DHT22;16482;51.046;4.498;2023-10-09T03:56:21;24.20;49.80
29539;DHT22;16482;51.046;4.498;2023-10-09T03:58:50;24.20;49.90
29539;DHT22;16482;51.046;4.498;2023-10-09T04:01:19;24.20;49.90
29539;DHT22;16482;51.046;4.498;2023-10-09T04:03:52;24.20;49.80
29539;DHT22;16482;51.046;4.498;2023-10-09T04:06:26;24.20;49.80
29539;DHT22;16482;51.046;4.498;2023-10-09T04:08:58;24.20;49.90
29539;DHT22;16482;51.046;4.498;2023-10-09T04:11:36;24.20;49.90
29539;DHT22;16482;51.046;4.498;2023-10-09T04:14:02;24.20;49.90
29539;DHT22;16482;51.046;4.498;2023-10-09T04:16:35;24.20;50.00
29539;DHT22;16482;51.046;4.498;2023-10-09T04:19:19;24.20;49.90
29539;DHT22;16482;51.046;4.498;2023-10-09T04:21:50;24.20;50.00
29539;DHT22;16482;51.046;4.498;2023-10-09T04:24:21;24.20;50.00
29539;DHT22;16482;51.046;4.498;2023-10-09T04:26:47;24.20;49.80
29539;DHT22;16482;51.046;4.498;2023-10-09T04:29:14;24.20;49.90
29539;DHT22;16482;51.046;4.498;2023-10-09T04:32:12;24.20;49.80
29539;DHT22;16482;51.046;4.498;2023-10-09T04:34:42;24.20;49.90
29539;DHT22;16482;51.046;4.498;2023-10-09T04:37:15;24.20;49.80
29539;DHT22;16482;51.046;4.498;2023-10-09T04:39:44;24.20;50.00
29539;DHT22;16482;51.046;4.498;2023-10-09T04:42:13;24.20;49.90
29539;DHT22;16482;51.046;4.498;2023-10-09T04:44:52;24.20;49.90
29539;DHT22;16482;51.046;4.498;2023-10-09T04:47:34;24.20;50.00
29539;DHT22;16482;51.046;4.498;2023-10-09T04:50:25;24.20;49.90
29539;DHT22;16482;51.046;4.498;2023-10-09T04:53:00;24.10;49.90
29539;DHT22;16482;51.046;4.498;2023-10-09T04:55:44;24.10;49.90
29539;DHT22;16482;51.046;4.498;2023-10-09T04:58:24;24.20;50.00
29539;DHT22;16482;51.046;4.498;2023-10-09T05:00:53;24.20;50.10
29539;DHT22;16482;51.046;4.498;2023-10-09T05:03:25;24.10;49.90
29539;DHT22;16482;51.046;4.498;2023-10-09T05:06:09;24.20;50.70
29539;DHT22;16482;51.046;4.498;2023-10-09T05:09:06;24.20;49.90
29539;DHT22;16482;51.046;4.498;2023-10-09T05:11:38;24.20;50.00
29539;DHT22;16482;51.046;4.498;2023-10-09T05:14:39;24.20;50.00
29539;DHT22;16482;51.046;4.498;2023-10-09T05:17:06;24.10;50.00
29539;DHT22;16482;51.046;4.498;2023-10-09T05:19:32;24.10;50.00
29539;DHT22;16482;51.046;4.498;2023-10-09T05:22:30;24.20;50.10
29539;DHT22;16482;51.046;4.498;2023-10-09T05:25:02;24.20;50.20
29539;DHT22;16482;51.046;4.498;2023-10-09T05:27:28;24.20;50.00
29539;DHT22;16482;51.046;4.498;2023-10-09T05:30:32;24.20;50.00
29539;DHT22;16482;51.046;4.498;2023-10-09T05:33:01;24.20;50.10
29539;DHT22;16482;51.046;4.498;2023-10-09T05:35:45;24.10;50.10
29539;DHT22;16482;51.046;4.498;2023-10-09T05:38:31;24.20;50.10
29539;DHT22;16482;51.046;4.498;2023-10-09T05:41:10;24.20;50.10
29539;DHT22;16482;51.046;4.498;2023-10-09T05:43:58;24.10;50.00
29539;DHT22;16482;51.046;4.498;2023-10-09T05:46:43;24.10;50.00
29539;DHT22;16482;51.046;4.498;2023-10-09T05:49:34;24.10;50.00
29539;DHT22;16482;51.046;4.498;2023-10-09T05:52:14;24.10;50.10
29539;DHT22;16482;51.046;4.498;2023-10-09T05:55:26;24.10;50.10
29539;DHT22;16482;51.046;4.498;2023-10-09T05:57:55;24.10;50.10
29539;DHT22;16482;51.046;4.498;2023-10-09T06:00:40;24.20;50.10
29539;DHT22;16482;51.046;4.498;2023-10-09T06:03:24;24.20;50.20
29539;DHT22;16482;51.046;4.498;2023-10-09T06:06:13;24.20;50.20
29539;DHT22;16482;51.046;4.498;2023-10-09T06:09:03;24.10;50.10
29539;DHT22;16482;51.046;4.498;2023-10-09T06:11:41;24.10;50.10
29539;DHT22;16482;51.046;4.498;2023-10-09T06:14:12;24.10;50.10
29539;DHT22;16482;51.046;4.498;2023-10-09T06:16:40;24.10;50.20
29539;DHT22;16482;51.046;4.498;2023-10-09T06:19:42;24.20;50.10
29539;DHT22;16482;51.046;4.498;2023-10-09T06:22:14;24.10;50.10
29539;DHT22;16482;51.046;4.498;2023-10-09T06:24:59;24.10;50.10
29539;DHT22;16482;51.046;4.498;2023-10-09T06:27:34;24.10;50.10
29539;DHT22;16482;51.046;4.498;2023-10-09T06:30:00;24.20;50.10
29539;DHT22;16482;51.046;4.498;2023-10-09T06:33:02;24.10;50.10
29539;DHT22;16482;51.046;4.498;2023-10-09T06:35:45;24.10;50.10
29539;DHT22;16482;51.046;4.498;2023-10-09T06:38:19;24.10;50.10
29539;DHT22;16482;51.046;4.498;2023-10-09T06:40:50;24.20;50.10
29539;DHT22;16482;51.046;4.498;2023-10-09T06:43:41;24.10;50.10
29539;DHT22;16482;51.046;4.498;2023-10-09T06:46:16;24.10;50.10
29539;DHT22;16482;51.046;4.498;2023-10-09T06:48:51;24.10;50.10
29539;DHT22;16482;51.046;4.498;2023-10-09T06:51:23;24.10;50.10
29539;DHT22;16482;51.046;4.498;2023-10-09T06:53:55;24.10;50.10
29539;DHT22;16482;51.046;4.498;2023-10-09T06:56:29;24.20;50.10
29539;DHT22;16482;51.046;4.498;2023-10-09T06:58:59;24.10;50.10
29539;DHT22;16482;51.046;4.498;2023-10-09T07:01:30;24.10;50.00
29539;DHT22;16482;51.046;4.498;2023-10-09T07:03:56;24.20;50.00
29539;DHT22;16482;51.046;4.498;2023-10-09T07:06:40;24.10;50.00
29539;DHT22;16482;51.046;4.498;2023-10-09T07:09:06;24.20;50.10
29539;DHT22;16482;51.046;4.498;2023-10-09T07:11:37;24.10;50.10
29539;DHT22;16482;51.046;4.498;2023-10-09T07:14:14;24.10;49.90
29539;DHT22;16482;51.046;4.498;2023-10-09T07:17:15;24.20;50.10
29539;DHT22;16482;51.046;4.498;2023-10-09T07:19:48;24.10;50.10
29539;DHT22;16482;51.046;4.498;2023-10-09T07:22:14;24.20;50.10
29539;DHT22;16482;51.046;4.498;2023-10-09T07:24:56;24.10;50.00
29539;DHT22;16482;51.046;4.498;2023-10-09T07:30:08;24.10;50.00
29539;DHT22;16482;51.046;4.498;2023-10-09T07:32:57;24.10;49.90
29539;DHT22;16482;51.046;4.498;2023-10-09T07:35:47;24.20;50.00
29539;DHT22;16482;51.046;4.498;2023-10-09T07:38:21;24.20;50.00
29539;DHT22;16482;51.046;4.498;2023-10-09T07:40:54;24.20;50.00
29539;DHT22;16482;51.046;4.498;2023-10-09T07:43:22;24.20;50.00
29539;DHT22;16482;51.046;4.498;2023-10-09T07:45:55;24.20;50.00
29539;DHT22;16482;51.046;4.498;2023-10-09T07:48:24;24.20;50.00
29539;DHT22;16482;51.046;4.498;2023-10-09T07:51:13;24.20;50.00
29539;DHT22;16482;51.046;4.498;2023-10-09T07:53:42;24.20;50.00
29539;DHT22;16482;51.046;4.498;2023-10-09T07:56:14;24.20;50.00
29539;DHT22;16482;51.046;4.498;2023-10-09T07:58:47;24.20;50.00
29539;DHT22;16482;51.046;4.498;2023-10-09T08:01:13;24.20;50.00
29539;DHT22;16482;51.046;4.498;2023-10-09T08:03:48;24.20;50.00
29539;DHT22;16482;51.046;4.498;2023-10-09T08:06:24;24.20;50.00
29539;DHT22;16482;51.046;4.498;2023-10-09T08:09:05;24.20;50.00
29539;DHT22;16482;51.046;4.498;2023-10-09T08:11:41;24.20;50.00
29539;DHT22;16482;51.046;4.498;2023-10-09T08:14:45;24.20;50.00
29539;DHT22;16482;51.046;4.498;2023-10-09T08:17:14;24.20;50.10
29539;DHT22;16482;51.046;4.498;2023-10-09T08:19:53;24.20;50.00
29539;DHT22;16482;51.046;4.498;2023-10-09T08:22:28;24.20;50.00
29539;DHT22;16482;51.046;4.498;2023-10-09T08:24:54;24.20;50.00
29539;DHT22;16482;51.046;4.498;2023-10-09T08:27:26;24.20;50.00
29539;DHT22;16482;51.046;4.498;2023-10-09T08:30:03;24.30;50.00
29539;DHT22;16482;51.046;4.498;2023-10-09T08:33:01;24.20;49.90
29539;DHT22;16482;51.046;4.498;2023-10-09T08:35:35;24.30;50.00
29539;DHT22;16482;51.046;4.498;2023-10-09T08:38:13;24.30;50.00
29539;DHT22;16482;51.046;4.498;2023-10-09T08:40:43;24.30;50.00
29539;DHT22;16482;51.046;4.498;2023-10-09T08:43:19;24.30;49.90
29539;DHT22;16482;51.046;4.498;2023-10-09T08:45:50;24.30;49.90
29539;DHT22;16482;51.046;4.498;2023-10-09T08:48:21;24.30;49.90
29539;DHT22;16482;51.046;4.498;2023-10-09T08:50:50;24.30;49.90
29539;DHT22;16482;51.046;4.498;2023-10-09T08:53:17;24.30;49.90
29539;DHT22;16482;51.046;4.498;2023-10-09T08:55:43;24.40;49.90
29539;DHT22;16482;51.046;4.498;2023-10-09T08:58:09;24.30;49.90
29539;DHT22;16482;51.046;4.498;2023-10-09T09:01:02;24.40;50.00
29539;DHT22;16482;51.046;4.498;2023-10-09T09:03:40;24.40;50.20
29539;DHT22;16482;51.046;4.498;2023-10-09T09:06:11;24.40;50.20
29539;DHT22;16482;51.046;4.498;2023-10-09T09:08:43;24.40;50.40
29539;DHT22;16482;51.046;4.498;2023-10-09T09:11:16;24.40;50.60
29539;DHT22;16482;51.046;4.498;2023-10-09T09:14:00;24.40;50.50
29539;DHT22;16482;51.046;4.498;2023-10-09T09:16:44;24.40;50.50
29539;DHT22;16482;51.046;4.498;2023-10-09T09:19:14;24.40;50.60
29539;DHT22;16482;51.046;4.498;2023-10-09T09:21:51;24.40;50.60
29539;DHT22;16482;51.046;4.498;2023-10-09T09:24:21;24.40;50.50
29539;DHT22;16482;51.046;4.498;2023-10-09T09:26:48;24.50;50.70
29539;DHT22;16482;51.046;4.498;2023-10-09T09:29:44;24.50;50.70
29539;DHT22;16482;51.046;4.498;2023-10-09T09:32:33;24.60;50.70
29539;DHT22;16482;51.046;4.498;2023-10-09T09:35:02;24.50;50.80
29539;DHT22;16482;51.046;4.498;2023-10-09T09:37:32;24.60;50.80
29539;DHT22;16482;51.046;4.498;2023-10-09T09:40:07;24.50;51.30
29539;DHT22;16482;51.046;4.498;2023-10-09T09:42:49;24.50;50.80
29539;DHT22;16482;51.046;4.498;2023-10-09T09:45:17;24.60;50.80
29539;DHT22;16482;51.046;4.498;2023-10-09T09:47:52;24.60;50.70
29539;DHT22;16482;51.046;4.498;2023-10-09T09:50:21;24.60;50.70
29539;DHT22;16482;51.046;4.498;2023-10-09T09:52:55;24.60;50.70
29539;DHT22;16482;51.046;4.498;2023-10-09T09:55:26;24.60;50.70
29539;DHT22;16482;51.046;4.498;2023-10-09T09:58:02;24.70;50.90
29539;DHT22;16482;51.046;4.498;2023-10-09T10:00:34;24.60;50.90
29539;DHT22;16482;51.046;4.498;2023-10-09T10:03:12;24.60;50.90
29539;DHT22;16482;51.046;4.498;2023-10-09T10:05:45;24.60;50.90
29539;DHT22;16482;51.046;4.498;2023-10-09T10:08:16;24.60;50.80
29539;DHT22;16482;51.046;4.498;2023-10-09T10:10:46;24.60;50.70
29539;DHT22;16482;51.046;4.498;2023-10-09T10:16:14;24.70;50.80
29539;DHT22;16482;51.046;4.498;2023-10-09T10:21:18;24.60;50.80
29539;DHT22;16482;51.046;4.498;2023-10-09T10:24:02;24.70;50.80
29539;DHT22;16482;51.046;4.498;2023-10-09T10:26:32;24.70;50.70
29539;DHT22;16482;51.046;4.498;2023-10-09T10:29:20;24.70;50.70
29539;DHT22;16482;51.046;4.498;2023-10-09T10:32:04;24.70;50.70
29539;DHT22;16482;51.046;4.498;2023-10-09T10:37:12;24.70;50.80
29539;DHT22;16482;51.046;4.498;2023-10-09T10:39:59;24.70;50.80
29539;DHT22;16482;51.046;4.498;2023-10-09T10:42:55;24.70;50.60
29539;DHT22;16482;51.046;4.498;2023-10-09T10:45:38;24.70;50.70
29539;DHT22;16482;51.046;4.498;2023-10-09T10:48:10;24.70;50.60
29539;DHT22;16482;51.046;4.498;2023-10-09T10:50:57;24.70;50.60
29539;DHT22;16482;51.046;4.498;2023-10-09T10:53:23;24.70;50.60
29539;DHT22;16482;51.046;4.498;2023-10-09T10:56:16;24.70;50.50
29539;DHT22;16482;51.046;4.498;2023-10-09T10:58:42;24.70;50.70
29539;DHT22;16482;51.046;4.498;2023-10-09T11:01:32;24.70;50.70
29539;DHT22;16482;51.046;4.498;2023-10-09T11:04:17;24.70;50.70
29539;DHT22;16482;51.046;4.498;2023-10-09T11:07:12;24.60;50.70
29539;DHT22;16482;51.046;4.498;2023-10-09T11:15:11;24.70;50.80
29539;DHT22;16482;51.046;4.498;2023-10-09T11:18:06;24.80;50.70
29539;DHT22;16482;51.046;4.498;2023-10-09T11:20:37;24.80;50.60
29539;DHT22;16482;51.046;4.498;2023-10-09T11:23:04;24.80;50.80
29539;DHT22;16482;51.046;4.498;2023-10-09T11:25:46;24.70;50.90
29539;DHT22;16482;51.046;4.498;2023-10-09T11:28:42;24.80;50.90
29539;DHT22;16482;51.046;4.498;2023-10-09T11:31:14;24.70;51.00
29539;DHT22;16482;51.046;4.498;2023-10-09T11:33:47;24.80;51.10
29539;DHT22;16482;51.046;4.498;2023-10-09T11:36:21;24.70;51.00
29539;DHT22;16482;51.046;4.498;2023-10-09T11:39:03;24.80;51.20
29539;DHT22;16482;51.046;4.498;2023-10-09T11:41:48;24.70;51.30
29539;DHT22;16482;51.046;4.498;2023-10-09T11:44:15;24.70;51.30
29539;DHT22;16482;51.046;4.498;2023-10-09T11:47:03;24.80;51.40
29539;DHT22;16482;51.046;4.498;2023-10-09T11:49:55;24.80;51.30
29539;DHT22;16482;51.046;4.498;2023-10-09T11:52:27;24.80;51.40
29539;DHT22;16482;51.046;4.498;2023-10-09T11:55:05;24.80;51.40
29539;DHT22;16482;51.046;4.498;2023-10-09T11:57:40;24.80;51.30
29539;DHT22;16482;51.046;4.498;2023-10-09T12:00:07;24.80;51.40
29539;DHT22;16482;51.046;4.498;2023-10-09T12:02:51;24.80;51.20
29539;DHT22;16482;51.046;4.498;2023-10-09T12:05:25;24.80;51.40
29539;DHT22;16482;51.046;4.498;2023-10-09T12:07:53;24.80;51.50
29539;DHT22;16482;51.046;4.498;2023-10-09T12:10:23;24.80;51.50
29539;DHT22;16482;51.046;4.498;2023-10-09T12:12:54;24.80;51.80
29539;DHT22;16482;51.046;4.498;2023-10-09T12:15:23;24.80;51.70
29539;DHT22;16482;51.046;4.498;2023-10-09T12:17:58;24.80;51.80
29539;DHT22;16482;51.046;4.498;2023-10-09T12:20:24;24.90;51.80
29539;DHT22;16482;51.046;4.498;2023-10-09T12:22:57;24.80;51.80
29539;DHT22;16482;51.046;4.498;2023-10-09T12:25:24;24.90;51.70
29539;DHT22;16482;51.046;4.498;2023-10-09T12:27:50;25.00;51.50
29539;DHT22;16482;51.046;4.498;2023-10-09T12:30:20;25.00;51.60
29539;DHT22;16482;51.046;4.498;2023-10-09T12:32:53;25.00;51.70
29539;DHT22;16482;51.046;4.498;2023-10-09T12:35:22;24.90;51.70
29539;DHT22;16482;51.046;4.498;2023-10-09T12:37:53;24.90;51.80
29539;DHT22;16482;51.046;4.498;2023-10-09T12:40:24;25.00;51.90
29539;DHT22;16482;51.046;4.498;2023-10-09T12:42:52;25.00;51.90
29539;DHT22;16482;51.046;4.498;2023-10-09T12:45:24;24.90;51.90
29539;DHT22;16482;51.046;4.498;2023-10-09T12:47:56;25.00;51.90
29539;DHT22;16482;51.046;4.498;2023-10-09T12:50:25;24.90;52.10
29539;DHT22;16482;51.046;4.498;2023-10-09T12:52:58;24.90;51.90
29539;DHT22;16482;51.046;4.498;2023-10-09T12:55:28;24.90;52.10
29539;DHT22;16482;51.046;4.498;2023-10-09T12:58:00;24.90;52.00
29539;DHT22;16482;51.046;4.498;2023-10-09T13:00:27;24.90;52.00
29539;DHT22;16482;51.046;4.498;2023-10-09T13:02:54;24.90;52.10
29539;DHT22;16482;51.046;4.498;2023-10-09T13:05:27;24.90;52.10
29539;DHT22;16482;51.046;4.498;2023-10-09T13:07:53;24.90;52.10
29539;DHT22;16482;51.046;4.498;2023-10-09T13:10:24;25.00;52.20
29539;DHT22;16482;51.046;4.498;2023-10-09T13:12:57;24.90;52.10
29539;DHT22;16482;51.046;4.498;2023-10-09T13:15:22;25.00;52.10
29539;DHT22;16482;51.046;4.498;2023-10-09T13:17:51;25.00;52.20
29539;DHT22;16482;51.046;4.498;2023-10-09T13:20:18;24.90;52.10
29539;DHT22;16482;51.046;4.498;2023-10-09T13:22:52;24.90;52.10
29539;DHT22;16482;51.046;4.498;2023-10-09T13:25:21;24.90;52.10
29539;DHT22;16482;51.046;4.498;2023-10-09T13:27:57;25.00;52.20
29539;DHT22;16482;51.046;4.498;2023-10-09T13:30:28;24.90;52.10
29539;DHT22;16482;51.046;4.498;2023-10-09T13:32:54;25.00;52.20
29539;DHT22;16482;51.046;4.498;2023-10-09T13:35:23;25.00;52.20
29539;DHT22;16482;51.046;4.498;2023-10-09T13:38:03;25.00;52.10
29539;DHT22;16482;51.046;4.498;2023-10-09T13:40:33;25.00;52.20
29539;DHT22;16482;51.046;4.498;2023-10-09T13:43:03;25.00;52.10
29539;DHT22;16482;51.046;4.498;2023-10-09T13:45:29;25.00;52.10
29539;DHT22;16482;51.046;4.498;2023-10-09T13:47:59;24.90;52.10
29539;DHT22;16482;51.046;4.498;2023-10-09T13:50:28;25.00;52.10
29539;DHT22;16482;51.046;4.498;2023-10-09T13:52:58;24.90;52.10
29539;DHT22;16482;51.046;4.498;2023-10-09T13:55:24;24.90;52.10
29539;DHT22;16482;51.046;4.498;2023-10-09T13:58:00;24.90;52.10
29539;DHT22;16482;51.046;4.498;2023-10-09T14:00:30;24.90;52.10
29539;DHT22;16482;51.046;4.498;2023-10-09T14:03:00;24.90;52.10
29539;DHT22;16482;51.046;4.498;2023-10-09T14:05:36;24.90;52.10
29539;DHT22;16482;51.046;4.498;2023-10-09T14:08:03;24.90;52.10
29539;DHT22;16482;51.046;4.498;2023-10-09T14:10:32;24.80;52.10
29539;DHT22;16482;51.046;4.498;2023-10-09T14:13:04;24.90;52.10
29539;DHT22;16482;51.046;4.498;2023-10-09T14:15:37;24.90;52.50
29539;DHT22;16482;51.046;4.498;2023-10-09T14:18:07;24.80;52.50
29539;DHT22;16482;51.046;4.498;2023-10-09T14:20:34;24.80;52.50
29539;DHT22;16482;51.046;4.498;2023-10-09T14:23:03;24.90;52.80
29539;DHT22;16482;51.046;4.498;2023-10-09T14:25:35;24.90;52.70
29539;DHT22;16482;51.046;4.498;2023-10-09T14:28:05;24.80;52.70
29539;DHT22;16482;51.046;4.498;2023-10-09T14:30:34;24.90;52.70
29539;DHT22;16482;51.046;4.498;2023-10-09T14:33:11;24.90;52.80
29539;DHT22;16482;51.046;4.498;2023-10-09T14:35:40;24.90;52.80
29539;DHT22;16482;51.046;4.498;2023-10-09T14:38:10;24.90;52.70
29539;DHT22;16482;51.046;4.498;2023-10-09T14:40:44;24.90;52.80
29539;DHT22;16482;51.046;4.498;2023-10-09T14:43:11;24.90;52.90
29539;DHT22;16482;51.046;4.498;2023-10-09T14:45:47;24.90;53.00
29539;DHT22;16482;51.046;4.498;2023-10-09T14:48:19;24.90;52.90
29539;DHT22;16482;51.046;4.498;2023-10-09T14:50:52;24.90;53.00
29539;DHT22;16482;51.046;4.498;2023-10-09T14:53:23;24.90;53.00
29539;DHT22;16482;51.046;4.498;2023-10-09T14:55:56;24.90;53.10
29539;DHT22;16482;51.046;4.498;2023-10-09T14:58:22;24.90;52.90
29539;DHT22;16482;51.046;4.498;2023-10-09T15:00:56;24.90;53.00
29539;DHT22;16482;51.046;4.498;2023-10-09T15:03:22;24.90;53.00
29539;DHT22;16482;51.046;4.498;2023-10-09T15:05:50;24.90;53.20
29539;DHT22;16482;51.046;4.498;2023-10-09T15:08:24;24.90;53.30
29539;DHT22;16482;51.046;4.498;2023-10-09T15:10:58;24.90;53.20
29539;DHT22;16482;51.046;4.498;2023-10-09T15:13:24;24.90;53.40
29539;DHT22;16482;51.046;4.498;2023-10-09T15:15:56;24.90;53.10
29539;DHT22;16482;51.046;4.498;2023-10-09T15:18:22;24.90;53.20
29539;DHT22;16482;51.046;4.498;2023-10-09T15:20:49;24.90;53.20
29539;DHT22;16482;51.046;4.498;2023-10-09T15:23:15;24.90;53.20
29539;DHT22;16482;51.046;4.498;2023-10-09T15:25:43;24.90;53.20
29539;DHT22;16482;51.046;4.498;2023-10-09T15:28:11;24.90;53.10
29539;DHT22;16482;51.046;4.498;2023-10-09T15:30:38;25.00;53.00
29539;DHT22;16482;51.046;4.498;2023-10-09T15:33:07;25.00;52.80
29539;DHT22;16482;51.046;4.498;2023-10-09T15:35:34;25.00;52.70
29539;DHT22;16482;51.046;4.498;2023-10-09T15:38:04;24.90;52.90
29539;DHT22;16482;51.046;4.498;2023-10-09T15:40:30;24.90;53.00
29539;DHT22;16482;51.046;4.498;2023-10-09T15:43:00;25.00;53.00
29539;DHT22;16482;51.046;4.498;2023-10-09T15:45:26;25.00;53.00
29539;DHT22;16482;51.046;4.498;2023-10-09T15:47:54;25.00;52.90
29539;DHT22;16482;51.046;4.498;2023-10-09T15:50:21;25.00;52.90
29539;DHT22;16482;51.046;4.498;2023-10-09T15:52:53;25.00;52.90
29539;DHT22;16482;51.046;4.498;2023-10-09T15:55:22;25.00;52.80
29539;DHT22;16482;51.046;4.498;2023-10-09T15:57:51;25.00;52.80
29539;DHT22;16482;51.046;4.498;2023-10-09T16:00:21;24.90;52.90
29539;DHT22;16482;51.046;4.498;2023-10-09T16:02:55;25.00;52.80
29539;DHT22;16482;51.046;4.498;2023-10-09T16:05:22;25.00;52.80
29539;DHT22;16482;51.046;4.498;2023-10-09T16:07:54;25.00;52.80
29539;DHT22;16482;51.046;4.498;2023-10-09T16:10:21;25.00;52.80
29539;DHT22;16482;51.046;4.498;2023-10-09T16:12:48;24.90;52.80
29539;DHT22;16482;51.046;4.498;2023-10-09T16:15:24;25.00;52.80
29539;DHT22;16482;51.046;4.498;2023-10-09T16:17:53;25.00;52.80
29539;DHT22;16482;51.046;4.498;2023-10-09T16:20:29;25.00;52.80
29539;DHT22;16482;51.046;4.498;2023-10-09T16:23:00;25.00;53.00
29539;DHT22;16482;51.046;4.498;2023-10-09T16:25:32;25.00;53.10
29539;DHT22;16482;51.046;4.498;2023-10-09T16:28:03;25.00;53.10
29539;DHT22;16482;51.046;4.498;2023-10-09T16:30:29;25.00;53.30
29539;DHT22;16482;51.046;4.498;2023-10-09T16:32:55;25.00;53.40